sensor_id;sensor_type;location;lat;lon;timestamp;temperature;humidity
6054;DHT22;3055;50.886;14.814;2022-07-23T00:00:37;19.10;1.00
6054;DHT22;3055;50.886;14.814;2022-07-23T00:03:04;19.10;1.00
6054;DHT22;3055;50.886;14.814;2022-07-23T00:05:31;19.00;1.00
6054;DHT22;3055;50.886;14.814;2022-07-23T00:07:58;18.90;1.00
6054;DHT22;3055;50.886;14.814;2022-07-23T00:10:26;18.80;1.00
6054;DHT22;3055;50.886;14.814;2022-07-23T00:12:53;18.80;1.00
6054;DHT22;3055;50.886;14.814;2022-07-23T00:15:20;18.80;1.00
6054;DHT22;3055;50.886;14.814;2022-07-23T00:17:47;18.80;1.00
6054;DHT22;3055;50.886;14.814;2022-07-23T00:20:14;18.80;1.00
6054;DHT22;3055;50.886;14.814;2022-07-23T00:22:46;18.70;1.00
6054;DHT22;3055;50.886;14.814;2022-07-23T00:25:13;18.70;1.00
6054;DHT22;3055;50.886;14.814;2022-07-23T00:27:41;18.70;1.00
6054;DHT22;3055;50.886;14.814;2022-07-23T00:30:10;18.60;1.00
6054;DHT22;3055;50.886;14.814;2022-07-23T00:32:45;18.60;1.00
6054;DHT22;3055;50.886;14.814;2022-07-23T00:35:12;18.50;1.00
6054;DHT22;3055;50.886;14.814;2022-07-23T00:37:39;18.40;17.90
6054;DHT22;3055;50.886;14.814;2022-07-23T00:40:08;18.30;27.00
6054;DHT22;3055;50.886;14.814;2022-07-23T00:42:35;18.30;34.80
6054;DHT22;3055;50.886;14.814;2022-07-23T00:45:04;18.20;60.40
6054;DHT22;3055;50.886;14.814;2022-07-23T00:47:31;18.20;88.50
6054;DHT22;3055;50.886;14.814;2022-07-23T00:49:58;18.10;98.50
6054;DHT22;3055;50.886;14.814;2022-07-23T00:52:26;18.00;99.90
6054;DHT22;3055;50.886;14.814;2022-07-23T00:54:53;18.00;99.90
6054;DHT22;3055;50.886;14.814;2022-07-23T00:57:20;18.00;99.90
6054;DHT22;3055;50.886;14.814;2022-07-23T00:59:47;18.20;92.30
6054;DHT22;3055;50.886;14.814;2022-07-23T01:02:15;18.20;60.40
6054;DHT22;3055;50.886;14.814;2022-07-23T01:04:42;18.30;40.70
6054;DHT22;3055;50.886;14.814;2022-07-23T01:07:09;18.20;33.30
6054;DHT22;3055;50.886;14.814;2022-07-23T01:09:37;18.00;83.60
6054;DHT22;3055;50.886;14.814;2022-07-23T01:12:04;17.90;99.90
6054;DHT22;3055;50.886;14.814;2022-07-23T01:14:32;17.80;99.90
6054;DHT22;3055;50.886;14.814;2022-07-23T01:16:59;17.80;99.90
6054;DHT22;3055;50.886;14.814;2022-07-23T01:19:27;17.70;99.90
6054;DHT22;3055;50.886;14.814;2022-07-23T01:22:01;17.70;99.90
6054;DHT22;3055;50.886;14.814;2022-07-23T01:24:30;17.70;99.90
6054;DHT22;3055;50.886;14.814;2022-07-23T01:26:57;17.60;99.90
6054;DHT22;3055;50.886;14.814;2022-07-23T01:29:24;17.60;99.90
6054;DHT22;3055;50.886;14.814;2022-07-23T01:31:51;17.60;99.90
6054;DHT22;3055;50.886;14.814;2022-07-23T01:34:18;17.60;99.90
6054;DHT22;3055;50.886;14.814;2022-07-23T01:36:44;17.60;99.90
6054;DHT22;3055;50.886;14.814;2022-07-23T01:39:12;17.50;99.90
6054;DHT22;3055;50.886;14.814;2022-07-23T01:41:40;17.40;99.90
6054;DHT22;3055;50.886;14.814;2022-07-23T01:44:07;17.40;99.90
6054;DHT22;3055;50.886;14.814;2022-07-23T01:46:34;17.30;99.90
6054;DHT22;3055;50.886;14.814;2022-07-23T01:49:01;17.30;99.90
6054;DHT22;3055;50.886;14.814;2022-07-23T01:51:28;17.40;99.90
6054;DHT22;3055;50.886;14.814;2022-07-23T01:53:55;17.30;99.90
6054;DHT22;3055;50.886;14.814;2022-07-23T01:56:22;17.20;99.90
6054;DHT22;3055;50.886;14.814;2022-07-23T01:58:50;17.20;99.90
6054;DHT22;3055;50.886;14.814;2022-07-23T02:01:17;17.20;99.90
6054;DHT22;3055;50.886;14.814;2022-07-23T02:03:44;17.20;99.90
6054;DHT22;3055;50.886;14.814;2022-07-23T02:06:11;17.20;99.90
6054;DHT22;3055;50.886;14.814;2022-07-23T02:08:38;17.20;99.90
6054;DHT22;3055;50.886;14.814;2022-07-23T02:11:05;17.30;99.90
6054;DHT22;3055;50.886;14.814;2022-07-23T02:13:32;17.30;99.90
6054;DHT22;3055;50.886;14.814;2022-07-23T02:16:00;17.50;99.90
6054;DHT22;3055;50.886;14.814;2022-07-23T02:18:27;17.40;99.90
6054;DHT22;3055;50.886;14.814;2022-07-23T02:20:54;17.30;99.90
6054;DHT22;3055;50.886;14.814;2022-07-23T02:23:21;17.20;99.90
6054;DHT22;3055;50.886;14.814;2022-07-23T02:25:48;17.20;99.90
6054;DHT22;3055;50.886;14.814;2022-07-23T02:28:15;17.10;99.90
6054;DHT22;3055;50.886;14.814;2022-07-23T02:30:41;17.10;99.90
6054;DHT22;3055;50.886;14.814;2022-07-23T02:33:10;17.00;99.90
6054;DHT22;3055;50.886;14.814;2022-07-23T02:35:37;17.00;99.90
6054;DHT22;3055;50.886;14.814;2022-07-23T02:38:04;17.00;99.90
6054;DHT22;3055;50.886;14.814;2022-07-23T02:40:31;16.90;99.90
6054;DHT22;3055;50.886;14.814;2022-07-23T02:42:57;16.90;99.90
6054;DHT22;3055;50.886;14.814;2022-07-23T02:45:25;16.90;99.90
6054;DHT22;3055;50.886;14.814;2022-07-23T02:47:51;16.90;99.90
6054;DHT22;3055;50.886;14.814;2022-07-23T02:50:20;16.90;99.90
6054;DHT22;3055;50.886;14.814;2022-07-23T02:52:47;16.90;99.90
6054;DHT22;3055;50.886;14.814;2022-07-23T02:55:14;16.90;99.90
6054;DHT22;3055;50.886;14.814;2022-07-23T02:57:41;16.90;99.90
6054;DHT22;3055;50.886;14.814;2022-07-23T03:00:08;16.90;99.90
6054;DHT22;3055;50.886;14.814;2022-07-23T03:02:36;17.00;99.90
6054;DHT22;3055;50.886;14.814;2022-07-23T03:05:03;17.20;99.90
6054;DHT22;3055;50.886;14.814;2022-07-23T03:07:32;17.20;99.90
6054;DHT22;3055;50.886;14.814;2022-07-23T03:09:59;17.20;99.90
6054;DHT22;3055;50.886;14.814;2022-07-23T03:12:26;17.30;99.90
6054;DHT22;3055;50.886;14.814;2022-07-23T03:14:53;17.30;99.90
6054;DHT22;3055;50.886;14.814;2022-07-23T03:17:20;17.30;99.90
6054;DHT22;3055;50.886;14.814;2022-07-23T03:19:47;17.30;99.90
6054;DHT22;3055;50.886;14.814;2022-07-23T03:22:14;17.30;99.90
6054;DHT22;3055;50.886;14.814;2022-07-23T03:24:42;17.40;99.90
6054;DHT22;3055;50.886;14.814;2022-07-23T03:27:22;17.40;99.90
6054;DHT22;3055;50.886;14.814;2022-07-23T03:29:49;17.40;99.90
6054;DHT22;3055;50.886;14.814;2022-07-23T03:32:16;17.50;99.90
6054;DHT22;3055;50.886;14.814;2022-07-23T03:34:43;17.50;99.90
6054;DHT22;3055;50.886;14.814;2022-07-23T03:37:10;17.60;99.90
6054;DHT22;3055;50.886;14.814;2022-07-23T03:39:37;17.60;99.90
6054;DHT22;3055;50.886;14.814;2022-07-23T03:42:05;17.70;99.90
6054;DHT22;3055;50.886;14.814;2022-07-23T03:44:33;17.70;99.90
6054;DHT22;3055;50.886;14.814;2022-07-23T03:47:02;17.70;99.90
6054;DHT22;3055;50.886;14.814;2022-07-23T03:49:29;17.70;99.90
6054;DHT22;3055;50.886;14.814;2022-07-23T03:51:56;17.70;99.90
6054;DHT22;3055;50.886;14.814;2022-07-23T03:54:23;17.60;99.90
6054;DHT22;3055;50.886;14.814;2022-07-23T03:56:50;17.70;99.90
6054;DHT22;3055;50.886;14.814;2022-07-23T03:59:18;17.70;99.90
6054;DHT22;3055;50.886;14.814;2022-07-23T04:01:45;17.70;99.90
6054;DHT22;3055;50.886;14.814;2022-07-23T04:04:12;17.70;99.90
6054;DHT22;3055;50.886;14.814;2022-07-23T04:06:39;17.80;99.90
6054;DHT22;3055;50.886;14.814;2022-07-23T04:09:05;17.80;99.90
6054;DHT22;3055;50.886;14.814;2022-07-23T04:11:32;17.70;99.90
6054;DHT22;3055;50.886;14.814;2022-07-23T04:13:59;17.70;99.90
6054;DHT22;3055;50.886;14.814;2022-07-23T04:16:27;17.80;99.90
6054;DHT22;3055;50.886;14.814;2022-07-23T04:18:56;17.80;99.90
6054;DHT22;3055;50.886;14.814;2022-07-23T04:21:23;17.80;99.90
6054;DHT22;3055;50.886;14.814;2022-07-23T04:23:50;17.90;99.90
6054;DHT22;3055;50.886;14.814;2022-07-23T04:26:17;17.90;99.90
6054;DHT22;3055;50.886;14.814;2022-07-23T04:28:44;18.00;99.90
6054;DHT22;3055;50.886;14.814;2022-07-23T04:31:11;18.10;99.90
6054;DHT22;3055;50.886;14.814;2022-07-23T04:33:39;18.10;99.90
6054;DHT22;3055;50.886;14.814;2022-07-23T04:36:07;18.20;99.90
6054;DHT22;3055;50.886;14.814;2022-07-23T04:38:34;18.20;99.90
6054;DHT22;3055;50.886;14.814;2022-07-23T04:41:01;18.40;99.90
6054;DHT22;3055;50.886;14.814;2022-07-23T04:43:28;18.40;99.90
6054;DHT22;3055;50.886;14.814;2022-07-23T04:45:55;18.40;99.90
6054;DHT22;3055;50.886;14.814;2022-07-23T04:48:22;18.50;90.30
6054;DHT22;3055;50.886;14.814;2022-07-23T04:50:50;18.50;94.40
6054;DHT22;3055;50.886;14.814;2022-07-23T04:53:17;18.50;99.50
6054;DHT22;3055;50.886;14.814;2022-07-23T04:55:45;18.60;97.50
6054;DHT22;3055;50.886;14.814;2022-07-23T04:58:12;18.80;59.30
6054;DHT22;3055;50.886;14.814;2022-07-23T05:00:39;18.90;41.80
6054;DHT22;3055;50.886;14.814;2022-07-23T05:03:06;19.10;31.70
6054;DHT22;3055;50.886;14.814;2022-07-23T05:05:36;19.40;19.70
6054;DHT22;3055;50.886;14.814;2022-07-23T05:08:04;19.70;1.00
6054;DHT22;3055;50.886;14.814;2022-07-23T05:10:31;20.00;1.00
6054;DHT22;3055;50.886;14.814;2022-07-23T05:12:58;20.30;1.00
6054;DHT22;3055;50.886;14.814;2022-07-23T05:15:25;20.80;1.00
6054;DHT22;3055;50.886;14.814;2022-07-23T05:17:52;21.20;1.00
6054;DHT22;3055;50.886;14.814;2022-07-23T05:20:19;21.40;99.90
6054;DHT22;3055;50.886;14.814;2022-07-23T05:22:46;21.50;99.90
6054;DHT22;3055;50.886;14.814;2022-07-23T05:25:14;21.40;99.90
6054;DHT22;3055;50.886;14.814;2022-07-23T05:27:41;21.20;99.90
6054;DHT22;3055;50.886;14.814;2022-07-23T05:30:09;21.00;99.90
6054;DHT22;3055;50.886;14.814;2022-07-23T05:32:36;20.90;1.00
6054;DHT22;3055;50.886;14.814;2022-07-23T05:35:04;20.90;1.00
6054;DHT22;3055;50.886;14.814;2022-07-23T05:37:31;20.80;1.00
6054;DHT22;3055;50.886;14.814;2022-07-23T05:40:01;20.80;1.00
6054;DHT22;3055;50.886;14.814;2022-07-23T05:42:30;20.90;1.00
6054;DHT22;3055;50.886;14.814;2022-07-23T05:44:57;21.00;1.00
6054;DHT22;3055;50.886;14.814;2022-07-23T05:47:23;21.10;1.00
6054;DHT22;3055;50.886;14.814;2022-07-23T05:49:50;21.30;1.00
6054;DHT22;3055;50.886;14.814;2022-07-23T05:52:17;21.50;99.90
6054;DHT22;3055;50.886;14.814;2022-07-23T05:54:44;21.60;99.90
6054;DHT22;3055;50.886;14.814;2022-07-23T05:57:11;21.60;92.10
6054;DHT22;3055;50.886;14.814;2022-07-23T05:59:39;21.70;1.00
6054;DHT22;3055;50.886;14.814;2022-07-23T06:02:06;21.50;1.00
6054;DHT22;3055;50.886;14.814;2022-07-23T06:04:33;21.50;22.40
6054;DHT22;3055;50.886;14.814;2022-07-23T06:07:00;21.50;47.60
6054;DHT22;3055;50.886;14.814;2022-07-23T06:09:27;21.50;99.90
6054;DHT22;3055;50.886;14.814;2022-07-23T06:11:54;21.50;99.90
6054;DHT22;3055;50.886;14.814;2022-07-23T06:14:21;21.50;99.90
6054;DHT22;3055;50.886;14.814;2022-07-23T06:16:50;21.60;99.90
6054;DHT22;3055;50.886;14.814;2022-07-23T06:19:17;21.60;99.90
6054;DHT22;3055;50.886;14.814;2022-07-23T06:21:44;21.60;99.90
6054;DHT22;3055;50.886;14.814;2022-07-23T06:24:11;21.60;99.90
6054;DHT22;3055;50.886;14.814;2022-07-23T06:26:38;21.60;99.90
6054;DHT22;3055;50.886;14.814;2022-07-23T06:29:05;21.60;99.90
6054;DHT22;3055;50.886;14.814;2022-07-23T06:31:32;21.50;99.90
6054;DHT22;3055;50.886;14.814;2022-07-23T06:34:00;21.60;99.90
6054;DHT22;3055;50.886;14.814;2022-07-23T06:36:27;21.60;1.00
6054;DHT22;3055;50.886;14.814;2022-07-23T06:38:54;21.60;1.00
6054;DHT22;3055;50.886;14.814;2022-07-23T06:41:21;21.70;99.90
6054;DHT22;3055;50.886;14.814;2022-07-23T06:43:48;21.80;99.90
6054;DHT22;3055;50.886;14.814;2022-07-23T06:46:15;21.90;99.90
6054;DHT22;3055;50.886;14.814;2022-07-23T06:48:42;21.90;99.90
6054;DHT22;3055;50.886;14.814;2022-07-23T06:51:11;22.00;99.90
6054;DHT22;3055;50.886;14.814;2022-07-23T06:53:37;22.00;99.90
6054;DHT22;3055;50.886;14.814;2022-07-23T06:56:04;22.10;95.30
6054;DHT22;3055;50.886;14.814;2022-07-23T06:58:32;22.30;1.00
6054;DHT22;3055;50.886;14.814;2022-07-23T07:00:59;22.40;50.20
6054;DHT22;3055;50.886;14.814;2022-07-23T07:03:26;22.50;1.00
6054;DHT22;3055;50.886;14.814;2022-07-23T07:05:52;22.60;1.00
6054;DHT22;3055;50.886;14.814;2022-07-23T07:08:21;22.70;1.00
6054;DHT22;3055;50.886;14.814;2022-07-23T07:10:48;22.80;99.90
6054;DHT22;3055;50.886;14.814;2022-07-23T07:13:14;22.90;99.90
6054;DHT22;3055;50.886;14.814;2022-07-23T07:15:41;23.00;99.90
6054;DHT22;3055;50.886;14.814;2022-07-23T07:18:08;23.10;99.90
6054;DHT22;3055;50.886;14.814;2022-07-23T07:20:35;23.20;99.90
6054;DHT22;3055;50.886;14.814;2022-07-23T07:23:02;23.40;99.90
6054;DHT22;3055;50.886;14.814;2022-07-23T07:25:30;23.50;99.90
6054;DHT22;3055;50.886;14.814;2022-07-23T07:27:57;23.70;99.90
6054;DHT22;3055;50.886;14.814;2022-07-23T07:30:24;23.80;99.90
6054;DHT22;3055;50.886;14.814;2022-07-23T07:32:51;23.90;99.90
6054;DHT22;3055;50.886;14.814;2022-07-23T07:35:18;23.90;99.90
6054;DHT22;3055;50.886;14.814;2022-07-23T07:37:46;23.90;99.90
6054;DHT22;3055;50.886;14.814;2022-07-23T07:40:13;23.90;99.90
6054;DHT22;3055;50.886;14.814;2022-07-23T07:42:47;24.00;99.90
6054;DHT22;3055;50.886;14.814;2022-07-23T07:45:15;24.20;99.90
6054;DHT22;3055;50.886;14.814;2022-07-23T07:47:42;24.30;99.90
6054;DHT22;3055;50.886;14.814;2022-07-23T07:50:09;24.30;99.90
6054;DHT22;3055;50.886;14.814;2022-07-23T07:52:36;24.40;99.90
6054;DHT22;3055;50.886;14.814;2022-07-23T07:55:04;24.40;99.90
6054;DHT22;3055;50.886;14.814;2022-07-23T07:57:31;24.50;99.90
6054;DHT22;3055;50.886;14.814;2022-07-23T07:59:59;24.60;99.90
6054;DHT22;3055;50.886;14.814;2022-07-23T08:02:26;24.70;99.90
6054;DHT22;3055;50.886;14.814;2022-07-23T08:04:53;24.70;99.90
6054;DHT22;3055;50.886;14.814;2022-07-23T08:07:22;24.50;99.90
6054;DHT22;3055;50.886;14.814;2022-07-23T08:09:49;24.60;99.90
6054;DHT22;3055;50.886;14.814;2022-07-23T08:12:16;24.80;99.90
6054;DHT22;3055;50.886;14.814;2022-07-23T08:14:43;24.90;99.90
6054;DHT22;3055;50.886;14.814;2022-07-23T08:17:11;24.80;99.90
6054;DHT22;3055;50.886;14.814;2022-07-23T08:19:38;24.60;99.90
6054;DHT22;3055;50.886;14.814;2022-07-23T08:22:05;24.50;99.90
6054;DHT22;3055;50.886;14.814;2022-07-23T08:24:32;24.50;99.90
6054;DHT22;3055;50.886;14.814;2022-07-23T08:26:59;24.70;99.90
6054;DHT22;3055;50.886;14.814;2022-07-23T08:29:26;24.60;92.50
6054;DHT22;3055;50.886;14.814;2022-07-23T08:31:53;24.30;97.00
6054;DHT22;3055;50.886;14.814;2022-07-23T08:34:21;24.10;93.60
6054;DHT22;3055;50.886;14.814;2022-07-23T08:36:48;23.80;99.80
6054;DHT22;3055;50.886;14.814;2022-07-23T08:39:15;23.70;99.90
6054;DHT22;3055;50.886;14.814;2022-07-23T08:41:42;23.60;99.90
6054;DHT22;3055;50.886;14.814;2022-07-23T08:44:09;23.60;99.90
6054;DHT22;3055;50.886;14.814;2022-07-23T08:46:36;23.70;99.90
6054;DHT22;3055;50.886;14.814;2022-07-23T08:49:05;23.80;99.90
6054;DHT22;3055;50.886;14.814;2022-07-23T08:51:34;23.90;99.90
6054;DHT22;3055;50.886;14.814;2022-07-23T08:54:01;24.00;99.90
6054;DHT22;3055;50.886;14.814;2022-07-23T08:56:28;24.00;99.90
6054;DHT22;3055;50.886;14.814;2022-07-23T08:58:55;24.30;99.90
6054;DHT22;3055;50.886;14.814;2022-07-23T09:01:22;24.90;99.90
6054;DHT22;3055;50.886;14.814;2022-07-23T09:03:49;25.40;99.90
6054;DHT22;3055;50.886;14.814;2022-07-23T09:06:16;25.90;98.70
6054;DHT22;3055;50.886;14.814;2022-07-23T09:08:44;26.10;58.20
6054;DHT22;3055;50.886;14.814;2022-07-23T09:11:13;26.20;46.20
6054;DHT22;3055;50.886;14.814;2022-07-23T09:13:42;26.00;39.50
6054;DHT22;3055;50.886;14.814;2022-07-23T09:16:14;25.60;36.00
6054;DHT22;3055;50.886;14.814;2022-07-23T09:18:44;25.60;55.10
6054;DHT22;3055;50.886;14.814;2022-07-23T09:21:16;25.60;39.10
6054;DHT22;3055;50.886;14.814;2022-07-23T09:23:48;25.60;51.30
6054;DHT22;3055;50.886;14.814;2022-07-23T09:26:27;25.80;41.10
6054;DHT22;3055;50.886;14.814;2022-07-23T09:29:01;26.00;50.80
6054;DHT22;3055;50.886;14.814;2022-07-23T09:31:34;26.30;32.70
6054;DHT22;3055;50.886;14.814;2022-07-23T09:34:09;26.20;21.30
6054;DHT22;3055;50.886;14.814;2022-07-23T09:36:37;26.40;17.80
6054;DHT22;3055;50.886;14.814;2022-07-23T09:39:06;26.70;6.80
6054;DHT22;3055;50.886;14.814;2022-07-23T09:41:36;26.80;1.00
6054;DHT22;3055;50.886;14.814;2022-07-23T09:44:11;27.30;1.00
6054;DHT22;3055;50.886;14.814;2022-07-23T09:46:38;27.70;1.00
6054;DHT22;3055;50.886;14.814;2022-07-23T09:49:16;28.00;1.00
6054;DHT22;3055;50.886;14.814;2022-07-23T09:51:51;28.40;1.00
6054;DHT22;3055;50.886;14.814;2022-07-23T09:54:28;28.20;1.00
6054;DHT22;3055;50.886;14.814;2022-07-23T09:56:57;27.70;1.00
6054;DHT22;3055;50.886;14.814;2022-07-23T09:59:26;27.40;1.00
6054;DHT22;3055;50.886;14.814;2022-07-23T10:01:55;27.60;1.00
6054;DHT22;3055;50.886;14.814;2022-07-23T10:04:24;27.90;1.00
6054;DHT22;3055;50.886;14.814;2022-07-23T10:06:53;28.00;1.00
6054;DHT22;3055;50.886;14.814;2022-07-23T10:09:27;28.20;1.00
6054;DHT22;3055;50.886;14.814;2022-07-23T10:11:56;28.40;1.00
6054;DHT22;3055;50.886;14.814;2022-07-23T10:14:31;28.30;1.00
6054;DHT22;3055;50.886;14.814;2022-07-23T10:17:00;28.50;1.00
6054;DHT22;3055;50.886;14.814;2022-07-23T10:19:28;28.80;1.00
6054;DHT22;3055;50.886;14.814;2022-07-23T10:21:58;28.90;1.00
6054;DHT22;3055;50.886;14.814;2022-07-23T10:24:40;29.10;1.00
6054;DHT22;3055;50.886;14.814;2022-07-23T10:27:25;29.10;1.00
6054;DHT22;3055;50.886;14.814;2022-07-23T10:30:02;29.00;1.00
6054;DHT22;3055;50.886;14.814;2022-07-23T10:32:40;28.70;1.00
6054;DHT22;3055;50.886;14.814;2022-07-23T10:35:18;28.70;1.00
6054;DHT22;3055;50.886;14.814;2022-07-23T10:37:51;28.60;1.00
6054;DHT22;3055;50.886;14.814;2022-07-23T10:40:23;28.40;1.00
6054;DHT22;3055;50.886;14.814;2022-07-23T10:42:52;28.40;1.00
6054;DHT22;3055;50.886;14.814;2022-07-23T10:45:39;28.40;1.00
6054;DHT22;3055;50.886;14.814;2022-07-23T10:48:13;28.70;1.00
6054;DHT22;3055;50.886;14.814;2022-07-23T10:50:41;28.90;1.00
6054;DHT22;3055;50.886;14.814;2022-07-23T10:53:14;28.80;1.00
6054;DHT22;3055;50.886;14.814;2022-07-23T10:55:49;28.80;1.00
6054;DHT22;3055;50.886;14.814;2022-07-23T10:58:21;28.80;1.00
6054;DHT22;3055;50.886;14.814;2022-07-23T11:00:49;29.00;1.00
6054;DHT22;3055;50.886;14.814;2022-07-23T11:03:31;29.10;1.00
6054;DHT22;3055;50.886;14.814;2022-07-23T11:06:01;29.20;1.00
6054;DHT22;3055;50.886;14.814;2022-07-23T11:08:28;29.20;1.00
6054;DHT22;3055;50.886;14.814;2022-07-23T11:11:09;29.20;1.00
6054;DHT22;3055;50.886;14.814;2022-07-23T11:13:47;29.10;1.00
6054;DHT22;3055;50.886;14.814;2022-07-23T11:16:24;29.30;1.00
6054;DHT22;3055;50.886;14.814;2022-07-23T11:19:02;29.30;1.00
6054;DHT22;3055;50.886;14.814;2022-07-23T11:21:44;29.40;1.00
6054;DHT22;3055;50.886;14.814;2022-07-23T11:24:13;29.40;1.00
6054;DHT22;3055;50.886;14.814;2022-07-23T11:26:58;29.50;1.00
6054;DHT22;3055;50.886;14.814;2022-07-23T11:29:42;29.20;1.00
6054;DHT22;3055;50.886;14.814;2022-07-23T11:32:19;29.00;1.00
6054;DHT22;3055;50.886;14.814;2022-07-23T11:34:50;28.90;1.00
6054;DHT22;3055;50.886;14.814;2022-07-23T11:37:32;29.10;1.00
6054;DHT22;3055;50.886;14.814;2022-07-23T11:39:59;29.20;1.00
6054;DHT22;3055;50.886;14.814;2022-07-23T11:42:28;29.20;1.00
6054;DHT22;3055;50.886;14.814;2022-07-23T11:44:55;29.20;1.00
6054;DHT22;3055;50.886;14.814;2022-07-23T11:47:23;29.10;1.00
6054;DHT22;3055;50.886;14.814;2022-07-23T11:49:54;28.60;1.00
6054;DHT22;3055;50.886;14.814;2022-07-23T11:52:22;28.50;1.00
6054;DHT22;3055;50.886;14.814;2022-07-23T11:54:51;28.40;1.00
6054;DHT22;3055;50.886;14.814;2022-07-23T11:57:19;28.50;1.00
6054;DHT22;3055;50.886;14.814;2022-07-23T11:59:51;28.20;1.00
6054;DHT22;3055;50.886;14.814;2022-07-23T12:02:20;28.60;1.00
6054;DHT22;3055;50.886;14.814;2022-07-23T12:04:49;28.60;1.00
6054;DHT22;3055;50.886;14.814;2022-07-23T12:07:31;28.50;1.00
6054;DHT22;3055;50.886;14.814;2022-07-23T12:10:00;28.30;1.00
6054;DHT22;3055;50.886;14.814;2022-07-23T12:12:27;28.30;1.00
6054;DHT22;3055;50.886;14.814;2022-07-23T12:15:03;28.00;1.00
6054;DHT22;3055;50.886;14.814;2022-07-23T12:17:32;27.60;1.00
6054;DHT22;3055;50.886;14.814;2022-07-23T12:20:01;27.50;1.00
6054;DHT22;3055;50.886;14.814;2022-07-23T12:22:34;27.80;1.00
6054;DHT22;3055;50.886;14.814;2022-07-23T12:25:04;28.00;1.00
6054;DHT22;3055;50.886;14.814;2022-07-23T12:27:31;28.10;1.00
6054;DHT22;3055;50.886;14.814;2022-07-23T12:29:58;28.30;1.00
6054;DHT22;3055;50.886;14.814;2022-07-23T12:32:28;28.50;1.00
6054;DHT22;3055;50.886;14.814;2022-07-23T12:35:05;28.90;1.00
6054;DHT22;3055;50.886;14.814;2022-07-23T12:37:34;28.80;1.00
6054;DHT22;3055;50.886;14.814;2022-07-23T12:40:23;28.50;1.00
6054;DHT22;3055;50.886;14.814;2022-07-23T12:42:52;28.40;1.00
6054;DHT22;3055;50.886;14.814;2022-07-23T12:45:19;28.30;1.00
6054;DHT22;3055;50.886;14.814;2022-07-23T12:47:59;27.90;1.00
6054;DHT22;3055;50.886;14.814;2022-07-23T12:50:34;27.80;1.00
6054;DHT22;3055;50.886;14.814;2022-07-23T12:53:04;27.70;1.00
6054;DHT22;3055;50.886;14.814;2022-07-23T12:55:31;27.70;1.00
6054;DHT22;3055;50.886;14.814;2022-07-23T12:58:04;28.10;1.00
6054;DHT22;3055;50.886;14.814;2022-07-23T13:00:31;28.30;1.00
6054;DHT22;3055;50.886;14.814;2022-07-23T13:03:00;28.40;1.00
6054;DHT22;3055;50.886;14.814;2022-07-23T13:05:26;28.50;1.00
6054;DHT22;3055;50.886;14.814;2022-07-23T13:07:53;28.50;1.00
6054;DHT22;3055;50.886;14.814;2022-07-23T13:10:20;28.40;1.00
6054;DHT22;3055;50.886;14.814;2022-07-23T13:12:47;28.30;1.00
6054;DHT22;3055;50.886;14.814;2022-07-23T13:15:14;28.10;1.00
6054;DHT22;3055;50.886;14.814;2022-07-23T13:17:41;28.00;1.00
6054;DHT22;3055;50.886;14.814;2022-07-23T13:20:11;28.00;1.00
6054;DHT22;3055;50.886;14.814;2022-07-23T13:22:38;28.20;1.00
6054;DHT22;3055;50.886;14.814;2022-07-23T13:25:06;28.40;1.00
6054;DHT22;3055;50.886;14.814;2022-07-23T13:27:34;28.60;1.00
6054;DHT22;3055;50.886;14.814;2022-07-23T13:30:00;28.30;1.00
6054;DHT22;3055;50.886;14.814;2022-07-23T13:32:28;28.10;1.00
6054;DHT22;3055;50.886;14.814;2022-07-23T13:34:55;28.00;1.00
6054;DHT22;3055;50.886;14.814;2022-07-23T13:37:23;27.80;1.00
6054;DHT22;3055;50.886;14.814;2022-07-23T13:39:50;27.60;1.00
6054;DHT22;3055;50.886;14.814;2022-07-23T13:42:17;27.60;1.00
6054;DHT22;3055;50.886;14.814;2022-07-23T13:44:44;27.70;1.00
6054;DHT22;3055;50.886;14.814;2022-07-23T13:47:11;27.60;1.00
6054;DHT22;3055;50.886;14.814;2022-07-23T13:49:38;27.60;1.00
6054;DHT22;3055;50.886;14.814;2022-07-23T13:52:05;27.30;1.00
6054;DHT22;3055;50.886;14.814;2022-07-23T13:54:33;26.90;1.00
6054;DHT22;3055;50.886;14.814;2022-07-23T13:57:00;26.80;1.00
6054;DHT22;3055;50.886;14.814;2022-07-23T13:59:27;26.70;1.00
6054;DHT22;3055;50.886;14.814;2022-07-23T14:01:54;26.60;1.00
6054;DHT22;3055;50.886;14.814;2022-07-23T14:04:22;26.50;1.00
6054;DHT22;3055;50.886;14.814;2022-07-23T14:06:49;26.10;1.00
6054;DHT22;3055;50.886;14.814;2022-07-23T14:09:16;25.70;1.00
6054;DHT22;3055;50.886;14.814;2022-07-23T14:11:44;25.30;1.00
6054;DHT22;3055;50.886;14.814;2022-07-23T14:14:11;25.10;1.00
6054;DHT22;3055;50.886;14.814;2022-07-23T14:16:38;25.30;1.00
6054;DHT22;3055;50.886;14.814;2022-07-23T14:19:05;25.40;1.00
6054;DHT22;3055;50.886;14.814;2022-07-23T14:21:32;25.60;1.00
6054;DHT22;3055;50.886;14.814;2022-07-23T14:23:59;25.80;1.00
6054;DHT22;3055;50.886;14.814;2022-07-23T14:26:26;26.10;1.00
6054;DHT22;3055;50.886;14.814;2022-07-23T14:28:55;26.30;1.00
6054;DHT22;3055;50.886;14.814;2022-07-23T14:31:22;26.40;1.00
6054;DHT22;3055;50.886;14.814;2022-07-23T14:33:50;26.30;1.00
6054;DHT22;3055;50.886;14.814;2022-07-23T14:36:17;25.90;1.00
6054;DHT22;3055;50.886;14.814;2022-07-23T14:38:44;25.70;1.00
6054;DHT22;3055;50.886;14.814;2022-07-23T14:41:11;25.40;1.00
6054;DHT22;3055;50.886;14.814;2022-07-23T14:43:38;25.20;1.00
6054;DHT22;3055;50.886;14.814;2022-07-23T14:46:06;25.00;1.00
6054;DHT22;3055;50.886;14.814;2022-07-23T14:48:33;24.80;1.00
6054;DHT22;3055;50.886;14.814;2022-07-23T14:51:01;24.70;1.00
6054;DHT22;3055;50.886;14.814;2022-07-23T14:53:28;24.70;1.00
6054;DHT22;3055;50.886;14.814;2022-07-23T14:55:55;24.80;1.00
6054;DHT22;3055;50.886;14.814;2022-07-23T14:58:22;24.90;1.00
6054;DHT22;3055;50.886;14.814;2022-07-23T15:00:49;24.90;1.00
6054;DHT22;3055;50.886;14.814;2022-07-23T15:03:17;24.80;1.00
6054;DHT22;3055;50.886;14.814;2022-07-23T15:05:44;24.90;1.00
6054;DHT22;3055;50.886;14.814;2022-07-23T15:08:11;25.00;1.00
6054;DHT22;3055;50.886;14.814;2022-07-23T15:10:38;25.00;1.00
6054;DHT22;3055;50.886;14.814;2022-07-23T15:13:05;25.00;1.00
6054;DHT22;3055;50.886;14.814;2022-07-23T15:15:32;25.00;1.00
6054;DHT22;3055;50.886;14.814;2022-07-23T15:17:59;25.10;1.00
6054;DHT22;3055;50.886;14.814;2022-07-23T15:20:28;25.10;1.00
6054;DHT22;3055;50.886;14.814;2022-07-23T15:22:55;25.40;1.00
6054;DHT22;3055;50.886;14.814;2022-07-23T15:25:22;25.90;1.00
6054;DHT22;3055;50.886;14.814;2022-07-23T15:27:49;26.20;1.00
6054;DHT22;3055;50.886;14.814;2022-07-23T15:30:16;26.50;1.00
6054;DHT22;3055;50.886;14.814;2022-07-23T15:32:43;26.60;1.00
6054;DHT22;3055;50.886;14.814;2022-07-23T15:35:10;26.60;1.00
6054;DHT22;3055;50.886;14.814;2022-07-23T15:37:38;26.50;1.00
6054;DHT22;3055;50.886;14.814;2022-07-23T15:40:07;26.60;1.00
6054;DHT22;3055;50.886;14.814;2022-07-23T15:42:34;26.50;1.00
6054;DHT22;3055;50.886;14.814;2022-07-23T15:45:01;26.20;1.00
6054;DHT22;3055;50.886;14.814;2022-07-23T15:47:28;26.00;1.00
6054;DHT22;3055;50.886;14.814;2022-07-23T15:49:55;25.70;1.00
6054;DHT22;3055;50.886;14.814;2022-07-23T15:52:22;25.50;1.00
6054;DHT22;3055;50.886;14.814;2022-07-23T15:54:51;25.60;1.00
6054;DHT22;3055;50.886;14.814;2022-07-23T15:57:17;25.70;1.00
6054;DHT22;3055;50.886;14.814;2022-07-23T15:59:44;25.70;1.00
6054;DHT22;3055;50.886;14.814;2022-07-23T16:02:11;25.70;1.00